Chestnut Ridge, PA (15422)

10:15 PM EDT on July 23, 2016 (GMT -0400)
Dunbar | | Change Station

Elev 1056 ft 40.00 °N, 79.69 °W | Updated 6 seconds ago

Partly Cloudy
Partly Cloudy
70.3 °F
Feels Like 70.3 °F
N
0.0
Wind Variable Wind from East
Gusts 0.0 mph

Today
High -- | Low -- °F
--% Chance of Precip.
Yesterday
High -- | Low -- °F
Precip. -- in
Pressure 29.98 in
Visibility 10.0 miles
Clouds Few 4300 ft
Dew Point 68 °F
Humidity 93%
Rainfall 0.02 in
Snow Depth Not available.
6:10 AM 8:40 PM
Waning Gibbous, 80% visible
METAR KMGW 240153Z 00000KT 10SM FEW043 26/22 A3001 RMK AO2 SLP150 T02610222
Pressure 29.98 in
Visibility 10.0 miles
Clouds Few 4300 ft
Dew Point 68 °F
Humidity 93%
Rainfall 0.02 in
Snow Depth Not available.
6:10 AM 8:40 PM
Waning Gibbous, 80% visible
METAR KMGW 240153Z 00000KT 10SM FEW043 26/22 A3001 RMK AO2 SLP150 T02610222

10-Day Weather Forecast

Almanac

Astronomy

Jul. 23, 2016 Rise Set
Actual Time
Civil Twilight
Nautical Twilight
Astronomical Twilight
Moon
Length of Visible Light
Length of Day
Tomorrow will be .
, % of the Moon is Illuminated

Today's Extremes

State Highs State Lows

Community

WunderPhotos

Upload Photos

1,927,000 photos uploaded!

WunderBlog® & News

Nearby

Air Quality

  Air Quality AQ Index Pollutant
Not available.

Snow Depth

Station Depth Elevation

Earthquake Activity

City Distance Mag. Time & Date
Minimum magnitude displayed is 2.5.

Coastal Water Temperatures

Place Temperature

Stations

Nearby Weather Stations

Station Location Temp. Windchill Dew Point Humidity Wind Precip. Elev Updated Type
                   

Watches & Warnings

There are currently no watches in effect.